sensor_id;sensor_type;location;lat;lon;timestamp;pressure;altitude;pressure_sealevel;temperature;humidity
25510;BME280;13413;52.336;21.200;2023-08-20T00:00:22;100778.84;;;23.62;76.08
25510;BME280;13413;52.336;21.200;2023-08-20T00:03:16;100775.63;;;23.58;76.05
25510;BME280;13413;52.336;21.200;2023-08-20T00:06:11;100775.89;;;23.57;76.13
25510;BME280;13413;52.336;21.200;2023-08-20T00:09:04;100769.84;;;23.53;76.07
25510;BME280;13413;52.336;21.200;2023-08-20T00:11:58;100766.92;;;23.54;76.24
25510;BME280;13413;52.336;21.200;2023-08-20T00:14:57;100766.45;;;23.51;76.02
25510;BME280;13413;52.336;21.200;2023-08-20T00:17:52;100770.92;;;23.53;76.03
25510;BME280;13413;52.336;21.200;2023-08-20T00:20:47;100767.35;;;23.53;76.20
25510;BME280;13413;52.336;21.200;2023-08-20T00:23:40;100769.45;;;23.48;76.19
25510;BME280;13413;52.336;21.200;2023-08-20T00:26:35;100765.95;;;23.41;76.31
25510;BME280;13413;52.336;21.200;2023-08-20T00:29:29;100770.12;;;23.36;76.38
25510;BME280;13413;52.336;21.200;2023-08-20T00:32:23;100765.41;;;23.29;76.41
25510;BME280;13413;52.336;21.200;2023-08-20T00:35:17;100764.02;;;23.19;76.41
25510;BME280;13413;52.336;21.200;2023-08-20T00:38:11;100765.04;;;23.15;76.69
25510;BME280;13413;52.336;21.200;2023-08-20T00:41:05;100766.69;;;23.17;76.68
25510;BME280;13413;52.336;21.200;2023-08-20T00:43:59;100773.95;;;23.18;76.76
25510;BME280;13413;52.336;21.200;2023-08-20T00:46:54;100782.90;;;23.18;76.81
25510;BME280;13413;52.336;21.200;2023-08-20T00:49:47;100778.71;;;23.14;76.79
25510;BME280;13413;52.336;21.200;2023-08-20T00:52:41;100774.98;;;23.10;76.92
25510;BME280;13413;52.336;21.200;2023-08-20T00:55:35;100771.94;;;23.05;76.95
25510;BME280;13413;52.336;21.200;2023-08-20T00:58:29;100775.52;;;23.06;76.93
25510;BME280;13413;52.336;21.200;2023-08-20T01:01:23;100770.80;;;23.05;76.78
25510;BME280;13413;52.336;21.200;2023-08-20T01:04:17;100763.69;;;23.07;77.02
25510;BME280;13413;52.336;21.200;2023-08-20T01:07:17;100759.56;;;23.07;76.90
25510;BME280;13413;52.336;21.200;2023-08-20T01:10:19;100762.42;;;23.13;76.74
25510;BME280;13413;52.336;21.200;2023-08-20T01:13:17;100768.14;;;23.16;76.73
25510;BME280;13413;52.336;21.200;2023-08-20T01:16:11;100768.76;;;23.14;76.80
25510;BME280;13413;52.336;21.200;2023-08-20T01:19:06;100763.45;;;23.03;76.85
25510;BME280;13413;52.336;21.200;2023-08-20T01:22:34;100763.19;;;22.92;76.84
25510;BME280;13413;52.336;21.200;2023-08-20T01:25:49;100763.52;;;22.74;77.14
25510;BME280;13413;52.336;21.200;2023-08-20T01:28:48;100763.17;;;22.80;77.45
25510;BME280;13413;52.336;21.200;2023-08-20T01:31:44;100762.02;;;22.81;77.37
25510;BME280;13413;52.336;21.200;2023-08-20T01:34:38;100767.17;;;22.79;77.27
25510;BME280;13413;52.336;21.200;2023-08-20T01:37:32;100765.45;;;22.79;77.27
25510;BME280;13413;52.336;21.200;2023-08-20T01:40:26;100763.80;;;22.78;77.32
25510;BME280;13413;52.336;21.200;2023-08-20T01:43:20;100759.13;;;22.73;77.48
25510;BME280;13413;52.336;21.200;2023-08-20T01:46:14;100759.43;;;22.75;77.57
25510;BME280;13413;52.336;21.200;2023-08-20T01:49:08;100755.98;;;22.79;77.42
25510;BME280;13413;52.336;21.200;2023-08-20T01:52:03;100757.97;;;22.78;77.19
25510;BME280;13413;52.336;21.200;2023-08-20T01:55:14;100758.52;;;22.70;77.24
25510;BME280;13413;52.336;21.200;2023-08-20T01:58:07;100758.13;;;22.54;77.51
25510;BME280;13413;52.336;21.200;2023-08-20T02:01:01;100765.71;;;22.37;77.88
25510;BME280;13413;52.336;21.200;2023-08-20T02:03:55;100768.73;;;22.28;78.26
25510;BME280;13413;52.336;21.200;2023-08-20T02:06:48;100766.46;;;22.24;78.40
25510;BME280;13413;52.336;21.200;2023-08-20T02:09:42;100774.02;;;22.18;78.46
25510;BME280;13413;52.336;21.200;2023-08-20T02:21:07;100785.05;;;22.30;78.29
25510;BME280;13413;52.336;21.200;2023-08-20T02:24:14;100780.20;;;22.28;78.47
25510;BME280;13413;52.336;21.200;2023-08-20T02:27:08;100778.54;;;22.32;78.32
25510;BME280;13413;52.336;21.200;2023-08-20T02:30:05;100773.73;;;22.34;78.43
25510;BME280;13413;52.336;21.200;2023-08-20T02:33:00;100772.48;;;22.39;78.45
25510;BME280;13413;52.336;21.200;2023-08-20T02:35:53;100775.63;;;22.43;78.43
25510;BME280;13413;52.336;21.200;2023-08-20T02:38:48;100773.95;;;22.44;78.49
25510;BME280;13413;52.336;21.200;2023-08-20T02:41:42;100777.32;;;22.38;78.45
25510;BME280;13413;52.336;21.200;2023-08-20T02:44:35;100770.46;;;22.39;78.64
25510;BME280;13413;52.336;21.200;2023-08-20T02:47:29;100770.58;;;22.37;78.64
25510;BME280;13413;52.336;21.200;2023-08-20T02:50:22;100769.96;;;22.38;78.59
25510;BME280;13413;52.336;21.200;2023-08-20T02:53:16;100766.67;;;22.39;78.50
25510;BME280;13413;52.336;21.200;2023-08-20T02:56:10;100765.34;;;22.37;78.52
25510;BME280;13413;52.336;21.200;2023-08-20T03:02:00;100766.39;;;22.36;78.52
25510;BME280;13413;52.336;21.200;2023-08-20T03:04:55;100764.55;;;22.38;78.48
25510;BME280;13413;52.336;21.200;2023-08-20T03:07:49;100767.92;;;22.40;78.23
25510;BME280;13413;52.336;21.200;2023-08-20T03:10:43;100763.62;;;22.37;78.19
25510;BME280;13413;52.336;21.200;2023-08-20T03:13:37;100766.15;;;22.34;78.15
25510;BME280;13413;52.336;21.200;2023-08-20T03:16:31;100763.77;;;22.32;78.24
25510;BME280;13413;52.336;21.200;2023-08-20T03:19:25;100759.41;;;22.34;78.18
25510;BME280;13413;52.336;21.200;2023-08-20T03:22:18;100766.02;;;22.39;78.14
25510;BME280;13413;52.336;21.200;2023-08-20T03:25:13;100769.38;;;22.36;78.21
25510;BME280;13413;52.336;21.200;2023-08-20T03:28:07;100766.59;;;22.29;78.31
25510;BME280;13413;52.336;21.200;2023-08-20T03:31:02;100764.88;;;22.27;78.35
25510;BME280;13413;52.336;21.200;2023-08-20T03:33:56;100766.78;;;22.30;78.30
25510;BME280;13413;52.336;21.200;2023-08-20T03:36:50;100767.81;;;22.19;78.04
25510;BME280;13413;52.336;21.200;2023-08-20T03:39:44;100772.04;;;21.97;78.21
25510;BME280;13413;52.336;21.200;2023-08-20T03:42:38;100773.79;;;21.81;78.75
25510;BME280;13413;52.336;21.200;2023-08-20T03:45:31;100778.17;;;21.82;79.09
25510;BME280;13413;52.336;21.200;2023-08-20T03:48:25;100777.92;;;21.82;79.01
25510;BME280;13413;52.336;21.200;2023-08-20T03:51:20;100782.35;;;21.75;78.99
25510;BME280;13413;52.336;21.200;2023-08-20T03:54:14;100776.02;;;21.79;79.32
25510;BME280;13413;52.336;21.200;2023-08-20T03:57:08;100778.34;;;21.91;79.33
25510;BME280;13413;52.336;21.200;2023-08-20T04:00:02;100775.04;;;21.96;79.21
25510;BME280;13413;52.336;21.200;2023-08-20T04:02:55;100777.33;;;22.02;79.13
25510;BME280;13413;52.336;21.200;2023-08-20T04:05:51;100778.85;;;22.08;79.02
25510;BME280;13413;52.336;21.200;2023-08-20T04:08:45;100777.56;;;22.14;78.93
25510;BME280;13413;52.336;21.200;2023-08-20T04:11:39;100777.23;;;22.22;78.98
25510;BME280;13413;52.336;21.200;2023-08-20T04:14:32;100778.63;;;22.28;78.86
25510;BME280;13413;52.336;21.200;2023-08-20T04:17:25;100780.45;;;22.30;78.94
25510;BME280;13413;52.336;21.200;2023-08-20T04:20:19;100783.31;;;22.33;78.79
25510;BME280;13413;52.336;21.200;2023-08-20T04:23:14;100787.84;;;22.35;78.78
25510;BME280;13413;52.336;21.200;2023-08-20T04:26:08;100786.29;;;22.30;78.78
25510;BME280;13413;52.336;21.200;2023-08-20T04:29:02;100788.52;;;22.34;78.78
25510;BME280;13413;52.336;21.200;2023-08-20T04:31:56;100787.66;;;22.39;78.91
25510;BME280;13413;52.336;21.200;2023-08-20T04:37:36;100786.86;;;22.54;78.63
25510;BME280;13413;52.336;21.200;2023-08-20T04:40:29;100789.30;;;22.58;78.73
25510;BME280;13413;52.336;21.200;2023-08-20T04:43:24;100789.35;;;22.61;78.84
25510;BME280;13413;52.336;21.200;2023-08-20T04:46:17;100795.19;;;22.64;78.86
25510;BME280;13413;52.336;21.200;2023-08-20T04:49:12;100793.30;;;22.69;78.89
25510;BME280;13413;52.336;21.200;2023-08-20T04:52:05;100792.00;;;22.75;78.90
25510;BME280;13413;52.336;21.200;2023-08-20T04:55:00;100793.05;;;22.80;79.01
25510;BME280;13413;52.336;21.200;2023-08-20T04:57:54;100793.96;;;22.82;78.99
25510;BME280;13413;52.336;21.200;2023-08-20T05:00:47;100793.17;;;22.80;79.01
25510;BME280;13413;52.336;21.200;2023-08-20T05:03:42;100794.35;;;22.73;79.09
25510;BME280;13413;52.336;21.200;2023-08-20T05:06:35;100793.59;;;22.70;79.43
25510;BME280;13413;52.336;21.200;2023-08-20T05:09:29;100790.98;;;22.76;79.64
25510;BME280;13413;52.336;21.200;2023-08-20T05:12:23;100792.31;;;22.80;79.56
25510;BME280;13413;52.336;21.200;2023-08-20T05:15:17;100790.69;;;22.90;79.56
25510;BME280;13413;52.336;21.200;2023-08-20T05:18:12;100791.46;;;22.97;79.57
25510;BME280;13413;52.336;21.200;2023-08-20T05:21:06;100791.55;;;23.07;79.59
25510;BME280;13413;52.336;21.200;2023-08-20T05:23:59;100795.11;;;23.17;79.79
25510;BME280;13413;52.336;21.200;2023-08-20T05:27:07;100793.26;;;23.27;79.88
25510;BME280;13413;52.336;21.200;2023-08-20T05:30:02;100800.10;;;23.35;79.89
25510;BME280;13413;52.336;21.200;2023-08-20T05:32:56;100797.84;;;23.42;80.14
25510;BME280;13413;52.336;21.200;2023-08-20T05:35:50;100807.91;;;23.49;80.22
25510;BME280;13413;52.336;21.200;2023-08-20T05:38:44;100807.95;;;23.56;80.26
25510;BME280;13413;52.336;21.200;2023-08-20T05:41:37;100812.98;;;23.63;80.14
25510;BME280;13413;52.336;21.200;2023-08-20T05:44:32;100815.95;;;23.71;80.04
25510;BME280;13413;52.336;21.200;2023-08-20T05:47:25;100816.86;;;23.77;79.81
25510;BME280;13413;52.336;21.200;2023-08-20T05:50:20;100817.96;;;23.83;79.90
25510;BME280;13413;52.336;21.200;2023-08-20T05:53:14;100816.32;;;23.90;79.92
25510;BME280;13413;52.336;21.200;2023-08-20T05:56:08;100815.65;;;23.97;79.89
25510;BME280;13413;52.336;21.200;2023-08-20T05:59:02;100815.25;;;24.05;79.90
25510;BME280;13413;52.336;21.200;2023-08-20T06:01:56;100813.81;;;24.12;80.03
25510;BME280;13413;52.336;21.200;2023-08-20T06:04:50;100811.40;;;24.20;80.02
25510;BME280;13413;52.336;21.200;2023-08-20T06:07:44;100815.20;;;24.31;79.92
25510;BME280;13413;52.336;21.200;2023-08-20T06:10:40;100815.84;;;24.40;79.79
25510;BME280;13413;52.336;21.200;2023-08-20T06:13:35;100817.31;;;24.51;80.07
25510;BME280;13413;52.336;21.200;2023-08-20T06:16:28;100815.21;;;24.64;80.36
25510;BME280;13413;52.336;21.200;2023-08-20T06:19:23;100813.36;;;24.74;79.58
25510;BME280;13413;52.336;21.200;2023-08-20T06:22:17;100817.13;;;24.82;79.51
25510;BME280;13413;52.336;21.200;2023-08-20T06:25:11;100819.26;;;24.94;79.39
25510;BME280;13413;52.336;21.200;2023-08-20T06:28:05;100816.95;;;25.03;79.07
25510;BME280;13413;52.336;21.200;2023-08-20T06:30:59;100813.82;;;25.13;79.39
25510;BME280;13413;52.336;21.200;2023-08-20T06:33:53;100814.89;;;25.25;78.96
25510;BME280;13413;52.336;21.200;2023-08-20T06:36:47;100818.49;;;25.36;78.70
25510;BME280;13413;52.336;21.200;2023-08-20T06:39:41;100819.29;;;25.48;78.97
25510;BME280;13413;52.336;21.200;2023-08-20T06:42:35;100823.63;;;25.64;78.87
25510;BME280;13413;52.336;21.200;2023-08-20T06:45:30;100828.27;;;25.78;78.31
25510;BME280;13413;52.336;21.200;2023-08-20T06:48:23;100829.84;;;25.87;78.16
25510;BME280;13413;52.336;21.200;2023-08-20T06:53:06;100826.35;;;26.12;77.70
25510;BME280;13413;52.336;21.200;2023-08-20T06:55:59;100828.10;;;26.21;77.30
25510;BME280;13413;52.336;21.200;2023-08-20T06:58:53;100826.13;;;26.31;77.14
25510;BME280;13413;52.336;21.200;2023-08-20T07:01:47;100833.11;;;26.43;76.94
25510;BME280;13413;52.336;21.200;2023-08-20T07:04:41;100834.98;;;26.54;76.35
25510;BME280;13413;52.336;21.200;2023-08-20T07:07:36;100838.88;;;26.64;76.13
25510;BME280;13413;52.336;21.200;2023-08-20T07:10:29;100842.86;;;26.81;75.67
25510;BME280;13413;52.336;21.200;2023-08-20T07:13:24;100842.64;;;26.93;75.13
25510;BME280;13413;52.336;21.200;2023-08-20T07:16:17;100845.46;;;27.08;74.62
25510;BME280;13413;52.336;21.200;2023-08-20T07:19:11;100848.85;;;27.19;73.97
25510;BME280;13413;52.336;21.200;2023-08-20T07:22:06;100851.45;;;27.25;73.43
25510;BME280;13413;52.336;21.200;2023-08-20T07:25:00;100849.77;;;27.28;72.87
25510;BME280;13413;52.336;21.200;2023-08-20T07:28:08;100850.30;;;27.35;72.53
25510;BME280;13413;52.336;21.200;2023-08-20T07:31:02;100853.57;;;27.47;72.43
25510;BME280;13413;52.336;21.200;2023-08-20T07:33:57;100856.52;;;27.53;71.97
25510;BME280;13413;52.336;21.200;2023-08-20T07:36:50;100853.34;;;27.59;71.60
25510;BME280;13413;52.336;21.200;2023-08-20T07:39:44;100855.40;;;27.67;71.19
25510;BME280;13413;52.336;21.200;2023-08-20T07:42:39;100852.64;;;27.75;71.03
25510;BME280;13413;52.336;21.200;2023-08-20T07:45:32;100852.79;;;27.84;70.14
25510;BME280;13413;52.336;21.200;2023-08-20T07:48:25;100852.50;;;27.89;70.24
25510;BME280;13413;52.336;21.200;2023-08-20T07:51:19;100857.42;;;27.99;70.28
25510;BME280;13413;52.336;21.200;2023-08-20T07:54:13;100854.71;;;28.15;69.75
25510;BME280;13413;52.336;21.200;2023-08-20T07:57:07;100858.00;;;28.25;69.30
25510;BME280;13413;52.336;21.200;2023-08-20T08:00:01;100857.51;;;28.34;68.88
25510;BME280;13413;52.336;21.200;2023-08-20T08:02:55;100856.92;;;28.41;68.00
25510;BME280;13413;52.336;21.200;2023-08-20T08:05:50;100854.79;;;28.43;67.73
25510;BME280;13413;52.336;21.200;2023-08-20T08:08:44;100852.75;;;28.47;67.41
25510;BME280;13413;52.336;21.200;2023-08-20T08:11:38;100851.99;;;28.54;67.09
25510;BME280;13413;52.336;21.200;2023-08-20T08:14:32;100851.98;;;28.64;66.74
25510;BME280;13413;52.336;21.200;2023-08-20T08:17:26;100851.08;;;28.73;66.18
25510;BME280;13413;52.336;21.200;2023-08-20T08:20:21;100850.16;;;28.82;65.11
25510;BME280;13413;52.336;21.200;2023-08-20T08:23:15;100849.63;;;28.93;65.06
25510;BME280;13413;52.336;21.200;2023-08-20T08:26:08;100847.02;;;29.03;64.47
25510;BME280;13413;52.336;21.200;2023-08-20T08:29:03;100847.95;;;29.11;63.73
25510;BME280;13413;52.336;21.200;2023-08-20T08:31:56;100847.73;;;29.22;63.51
25510;BME280;13413;52.336;21.200;2023-08-20T08:34:51;100846.02;;;29.34;63.30
25510;BME280;13413;52.336;21.200;2023-08-20T08:37:44;100845.42;;;29.49;62.79
25510;BME280;13413;52.336;21.200;2023-08-20T08:40:39;100849.05;;;29.63;62.45
25510;BME280;13413;52.336;21.200;2023-08-20T08:43:34;100849.02;;;29.76;62.17
25510;BME280;13413;52.336;21.200;2023-08-20T08:46:29;100846.44;;;29.93;61.48
25510;BME280;13413;52.336;21.200;2023-08-20T08:49:23;100848.73;;;30.03;60.63
25510;BME280;13413;52.336;21.200;2023-08-20T08:52:17;100845.57;;;30.06;59.85
25510;BME280;13413;52.336;21.200;2023-08-20T08:55:12;100849.52;;;30.10;59.81
25510;BME280;13413;52.336;21.200;2023-08-20T09:01:01;100848.14;;;30.27;59.39
25510;BME280;13413;52.336;21.200;2023-08-20T09:03:54;100852.30;;;30.40;58.37
25510;BME280;13413;52.336;21.200;2023-08-20T09:12:21;100852.95;;;30.78;56.48
25510;BME280;13413;52.336;21.200;2023-08-20T09:15:15;100849.60;;;30.86;55.64
25510;BME280;13413;52.336;21.200;2023-08-20T09:21:19;100853.23;;;31.16;55.33
25510;BME280;13413;52.336;21.200;2023-08-20T09:24:14;100850.42;;;31.32;55.07
25510;BME280;13413;52.336;21.200;2023-08-20T09:27:08;100846.76;;;31.44;54.59
25510;BME280;13413;52.336;21.200;2023-08-20T09:30:02;100849.98;;;31.52;54.47
25510;BME280;13413;52.336;21.200;2023-08-20T09:33:07;100848.06;;;31.67;54.20
25510;BME280;13413;52.336;21.200;2023-08-20T09:36:01;100848.55;;;31.84;53.11
25510;BME280;13413;52.336;21.200;2023-08-20T09:38:56;100848.11;;;31.94;53.34
25510;BME280;13413;52.336;21.200;2023-08-20T09:41:50;100847.08;;;32.11;53.31
25510;BME280;13413;52.336;21.200;2023-08-20T09:44:46;100847.07;;;32.17;52.86
25510;BME280;13413;52.336;21.200;2023-08-20T09:47:41;100844.32;;;32.08;52.66
25510;BME280;13413;52.336;21.200;2023-08-20T09:50:37;100844.64;;;32.11;52.97
25510;BME280;13413;52.336;21.200;2023-08-20T09:53:36;100839.24;;;32.40;52.46
25510;BME280;13413;52.336;21.200;2023-08-20T09:56:31;100839.31;;;32.67;52.02
25510;BME280;13413;52.336;21.200;2023-08-20T09:59:31;100838.98;;;32.85;51.71
25510;BME280;13413;52.336;21.200;2023-08-20T10:02:27;100832.92;;;33.10;51.11
25510;BME280;13413;52.336;21.200;2023-08-20T10:05:24;100831.77;;;33.03;50.25
25510;BME280;13413;52.336;21.200;2023-08-20T10:11:13;100830.67;;;32.78;50.49
25510;BME280;13413;52.336;21.200;2023-08-20T10:14:07;100823.07;;;33.10;50.33
25510;BME280;13413;52.336;21.200;2023-08-20T10:17:01;100821.84;;;33.19;48.96
25510;BME280;13413;52.336;21.200;2023-08-20T10:20:00;100823.91;;;32.91;49.17
25510;BME280;13413;52.336;21.200;2023-08-20T10:22:57;100816.66;;;33.07;49.14
25510;BME280;13413;52.336;21.200;2023-08-20T10:25:54;100815.86;;;33.48;48.58
25510;BME280;13413;52.336;21.200;2023-08-20T10:32:45;100812.25;;;34.29;48.01
25510;BME280;13413;52.336;21.200;2023-08-20T10:35:51;100812.96;;;34.63;46.93
25510;BME280;13413;52.336;21.200;2023-08-20T10:38:48;100810.16;;;34.84;46.17
25510;BME280;13413;52.336;21.200;2023-08-20T10:41:42;100808.98;;;34.85;45.40
25510;BME280;13413;52.336;21.200;2023-08-20T10:48:00;100806.61;;;34.55;45.39
25510;BME280;13413;52.336;21.200;2023-08-20T10:50:54;100807.83;;;34.59;45.11
25510;BME280;13413;52.336;21.200;2023-08-20T10:54:04;100809.89;;;34.29;45.02
25510;BME280;13413;52.336;21.200;2023-08-20T10:57:00;100809.74;;;34.07;44.88
25510;BME280;13413;52.336;21.200;2023-08-20T10:59:59;100806.67;;;33.93;44.63
25510;BME280;13413;52.336;21.200;2023-08-20T11:02:55;100805.81;;;34.00;44.01
25510;BME280;13413;52.336;21.200;2023-08-20T11:05:51;100805.20;;;33.77;43.62
25510;BME280;13413;52.336;21.200;2023-08-20T11:08:46;100804.86;;;33.70;44.23
25510;BME280;13413;52.336;21.200;2023-08-20T11:11:41;100801.02;;;34.08;43.94
25510;BME280;13413;52.336;21.200;2023-08-20T11:14:36;100802.04;;;34.11;43.43
25510;BME280;13413;52.336;21.200;2023-08-20T11:17:30;100801.13;;;33.92;43.28
25510;BME280;13413;52.336;21.200;2023-08-20T11:20:24;100800.27;;;33.86;43.52
25510;BME280;13413;52.336;21.200;2023-08-20T11:23:16;100796.74;;;34.11;43.46
25510;BME280;13413;52.336;21.200;2023-08-20T11:31:56;100782.48;;;34.61;41.12
25510;BME280;13413;52.336;21.200;2023-08-20T11:34:50;100780.05;;;34.56;40.77
25510;BME280;13413;52.336;21.200;2023-08-20T11:37:44;100780.50;;;34.57;40.80
25510;BME280;13413;52.336;21.200;2023-08-20T11:40:39;100782.48;;;34.51;41.06
25510;BME280;13413;52.336;21.200;2023-08-20T11:43:34;100781.96;;;34.28;41.52
25510;BME280;13413;52.336;21.200;2023-08-20T11:46:27;100781.77;;;34.17;41.99
25510;BME280;13413;52.336;21.200;2023-08-20T11:49:29;100779.61;;;34.18;41.83
25510;BME280;13413;52.336;21.200;2023-08-20T11:52:23;100775.83;;;34.24;41.98
25510;BME280;13413;52.336;21.200;2023-08-20T11:55:23;100769.64;;;34.32;41.97
25510;BME280;13413;52.336;21.200;2023-08-20T11:58:20;100771.95;;;34.32;41.90
25510;BME280;13413;52.336;21.200;2023-08-20T12:01:15;100775.35;;;34.37;42.04
25510;BME280;13413;52.336;21.200;2023-08-20T12:04:10;100770.98;;;34.42;41.20
25510;BME280;13413;52.336;21.200;2023-08-20T12:07:05;100767.13;;;34.31;41.06
25510;BME280;13413;52.336;21.200;2023-08-20T12:10:06;100765.66;;;34.32;40.89
25510;BME280;13413;52.336;21.200;2023-08-20T12:13:12;100764.45;;;34.32;40.98
25510;BME280;13413;52.336;21.200;2023-08-20T12:16:06;100762.13;;;34.51;40.90
25510;BME280;13413;52.336;21.200;2023-08-20T12:19:00;100760.90;;;34.77;40.75
25510;BME280;13413;52.336;21.200;2023-08-20T12:21:53;100756.11;;;34.80;40.08
25510;BME280;13413;52.336;21.200;2023-08-20T12:24:47;100755.33;;;34.77;40.03
25510;BME280;13413;52.336;21.200;2023-08-20T12:27:42;100755.58;;;34.68;40.28
25510;BME280;13413;52.336;21.200;2023-08-20T12:30:36;100752.23;;;34.59;40.27
25510;BME280;13413;52.336;21.200;2023-08-20T12:33:30;100752.70;;;34.45;40.51
25510;BME280;13413;52.336;21.200;2023-08-20T12:36:24;100755.31;;;34.51;40.85
25510;BME280;13413;52.336;21.200;2023-08-20T12:39:18;100758.88;;;34.58;40.70
25510;BME280;13413;52.336;21.200;2023-08-20T12:42:12;100760.89;;;34.42;40.99
25510;BME280;13413;52.336;21.200;2023-08-20T12:45:06;100759.17;;;34.23;41.00
25510;BME280;13413;52.336;21.200;2023-08-20T12:48:00;100755.23;;;34.18;41.10
25510;BME280;13413;52.336;21.200;2023-08-20T12:50:55;100754.83;;;34.30;41.37
25510;BME280;13413;52.336;21.200;2023-08-20T12:53:51;100752.52;;;34.50;41.19
25510;BME280;13413;52.336;21.200;2023-08-20T12:56:45;100750.54;;;34.70;41.04
25510;BME280;13413;52.336;21.200;2023-08-20T12:59:38;100752.09;;;34.68;40.29
25510;BME280;13413;52.336;21.200;2023-08-20T13:02:33;100749.71;;;34.49;40.62
25510;BME280;13413;52.336;21.200;2023-08-20T13:05:29;100750.52;;;34.56;40.57
25510;BME280;13413;52.336;21.200;2023-08-20T13:08:24;100745.93;;;34.73;40.04
25510;BME280;13413;52.336;21.200;2023-08-20T13:11:21;100749.61;;;34.81;39.78
25510;BME280;13413;52.336;21.200;2023-08-20T13:14:16;100751.08;;;34.79;40.03
25510;BME280;13413;52.336;21.200;2023-08-20T13:17:12;100748.50;;;34.72;39.98
25510;BME280;13413;52.336;21.200;2023-08-20T13:20:07;100746.17;;;34.61;40.45
25510;BME280;13413;52.336;21.200;2023-08-20T13:23:01;100745.33;;;34.68;40.58
25510;BME280;13413;52.336;21.200;2023-08-20T13:25:57;100741.05;;;34.67;40.55
25510;BME280;13413;52.336;21.200;2023-08-20T13:28:51;100739.94;;;34.54;40.50
25510;BME280;13413;52.336;21.200;2023-08-20T13:31:45;100735.35;;;34.46;40.66
25510;BME280;13413;52.336;21.200;2023-08-20T13:34:38;100733.84;;;34.42;40.75
25510;BME280;13413;52.336;21.200;2023-08-20T13:37:33;100734.28;;;34.45;40.88
25510;BME280;13413;52.336;21.200;2023-08-20T13:40:27;100735.03;;;34.41;40.78
25510;BME280;13413;52.336;21.200;2023-08-20T13:43:19;100738.44;;;34.24;40.70
25510;BME280;13413;52.336;21.200;2023-08-20T13:49:38;100726.18;;;33.92;40.98
25510;BME280;13413;52.336;21.200;2023-08-20T13:52:32;100721.39;;;33.84;41.24
25510;BME280;13413;52.336;21.200;2023-08-20T13:55:26;100719.05;;;33.81;41.27
25510;BME280;13413;52.336;21.200;2023-08-20T13:58:20;100717.46;;;33.87;41.19
25510;BME280;13413;52.336;21.200;2023-08-20T14:01:14;100720.52;;;33.87;40.93
25510;BME280;13413;52.336;21.200;2023-08-20T14:04:08;100722.86;;;33.77;41.10
25510;BME280;13413;52.336;21.200;2023-08-20T14:07:15;100719.69;;;33.73;41.14
25510;BME280;13413;52.336;21.200;2023-08-20T14:10:11;100718.63;;;33.72;41.31
25510;BME280;13413;52.336;21.200;2023-08-20T14:13:05;100714.43;;;33.74;41.49
25510;BME280;13413;52.336;21.200;2023-08-20T14:15:59;100713.70;;;33.76;41.46
25510;BME280;13413;52.336;21.200;2023-08-20T14:18:53;100707.58;;;33.78;41.62
25510;BME280;13413;52.336;21.200;2023-08-20T14:21:46;100707.33;;;33.83;41.86
25510;BME280;13413;52.336;21.200;2023-08-20T14:24:40;100706.67;;;33.86;41.65
25510;BME280;13413;52.336;21.200;2023-08-20T14:27:34;100702.46;;;33.82;41.72
25510;BME280;13413;52.336;21.200;2023-08-20T14:30:28;100701.97;;;33.74;41.76
25510;BME280;13413;52.336;21.200;2023-08-20T14:33:22;100702.09;;;33.69;41.81
25510;BME280;13413;52.336;21.200;2023-08-20T14:36:15;100700.79;;;33.66;42.03
25510;BME280;13413;52.336;21.200;2023-08-20T14:39:08;100698.68;;;33.65;41.97
25510;BME280;13413;52.336;21.200;2023-08-20T14:42:02;100698.75;;;33.63;42.14
25510;BME280;13413;52.336;21.200;2023-08-20T14:44:56;100698.88;;;33.63;42.13
25510;BME280;13413;52.336;21.200;2023-08-20T14:47:50;100695.73;;;33.66;42.15
25510;BME280;13413;52.336;21.200;2023-08-20T14:50:44;100690.82;;;33.66;42.02
25510;BME280;13413;52.336;21.200;2023-08-20T14:53:38;100694.27;;;33.74;42.24
25510;BME280;13413;52.336;21.200;2023-08-20T14:56:32;100697.80;;;33.79;42.15
25510;BME280;13413;52.336;21.200;2023-08-20T14:59:26;100698.60;;;33.78;42.03
25510;BME280;13413;52.336;21.200;2023-08-20T15:02:20;100702.69;;;33.78;41.90
25510;BME280;13413;52.336;21.200;2023-08-20T15:05:17;100697.11;;;33.78;42.03
25510;BME280;13413;52.336;21.200;2023-08-20T15:11:18;100701.88;;;33.70;41.97
25510;BME280;13413;52.336;21.200;2023-08-20T15:14:11;100701.23;;;33.72;41.94
25510;BME280;13413;52.336;21.200;2023-08-20T15:17:04;100698.69;;;33.70;41.81
25510;BME280;13413;52.336;21.200;2023-08-20T15:19:58;100695.97;;;33.69;42.11
25510;BME280;13413;52.336;21.200;2023-08-20T15:22:52;100692.13;;;33.63;42.11
25510;BME280;13413;52.336;21.200;2023-08-20T15:25:50;100685.91;;;33.53;42.13
25510;BME280;13413;52.336;21.200;2023-08-20T15:28:44;100684.31;;;33.47;42.09
25510;BME280;13413;52.336;21.200;2023-08-20T15:31:38;100685.20;;;33.45;42.27
25510;BME280;13413;52.336;21.200;2023-08-20T15:34:32;100681.14;;;33.45;42.33
25510;BME280;13413;52.336;21.200;2023-08-20T15:37:25;100682.44;;;33.48;42.42
25510;BME280;13413;52.336;21.200;2023-08-20T15:40:20;100678.71;;;33.47;42.10
25510;BME280;13413;52.336;21.200;2023-08-20T15:43:14;100682.00;;;33.45;42.43
25510;BME280;13413;52.336;21.200;2023-08-20T15:46:08;100685.92;;;33.43;42.46
25510;BME280;13413;52.336;21.200;2023-08-20T15:49:02;100684.69;;;33.41;42.55
25510;BME280;13413;52.336;21.200;2023-08-20T15:51:56;100683.04;;;33.39;42.81